Williamsville, Illinois
Current Conditions -  °F | °C
As of 2:52 AM on Thursday 23 Oct 2014 (Local Time) from KSPI Reporting Station
Clear Clear  
Wind Chill: 37°   Ceiling: Unl
Heat Index: 40°   Visibility: 10mi
Dew Point: 36°   Wind: 5mph
Humidity: 86%   Direction: 120°ESE
Pressure: 30.22"   Gusts: NA
Location:  39.95°N, 89.55°W
Report Text: KSPI 230752Z AUTO 12004KT 10SM CLR 04/02 A3022 RMK AO2 SLP235 T00440022
Loading
Personal Weather Stations






























Interactive Weather Map
Tropical Storm Tracking
New forecast layout! Learn more

10-Day Weather Forecast

Advertisements
Track Severe Weather on mobile